createdAt,value
2018-10-05T00:02:09.203Z,102074.91
2018-10-05T00:05:33.624Z,102074.26
2018-10-05T00:08:58.033Z,102080.05
2018-10-05T00:12:22.464Z,102078.30
2018-10-05T00:15:46.971Z,102076.69
2018-10-05T00:19:11.539Z,102071.30
2018-10-05T00:22:36.119Z,102065.04
2018-10-05T00:26:00.585Z,102066.11
2018-10-05T00:29:25.002Z,102064.97
2018-10-05T00:32:49.437Z,102065.43
2018-10-05T00:36:13.859Z,102064.11
2018-10-05T00:39:38.272Z,102058.66
2018-10-05T00:43:02.641Z,102062.69
2018-10-05T00:46:27.049Z,102058.54
2018-10-05T00:49:51.460Z,102055.73
2018-10-05T00:53:15.898Z,102052.33
2018-10-05T00:56:40.434Z,102053.56
2018-10-05T01:00:04.974Z,102046.39
2018-10-05T01:03:29.415Z,102047.42
2018-10-05T01:06:53.862Z,102045.00
2018-10-05T01:10:18.276Z,102037.66
2018-10-05T01:13:42.665Z,102030.88
2018-10-05T01:17:07.127Z,102033.62
2018-10-05T01:20:31.581Z,102034.39
2018-10-05T01:23:56.033Z,102028.20
2018-10-05T01:27:20.451Z,102031.68
2018-10-05T01:30:44.890Z,102025.56
2018-10-05T01:34:09.335Z,102020.23
2018-10-05T01:37:33.760Z,102014.46
2018-10-05T01:40:58.191Z,102012.69
2018-10-05T01:44:22.616Z,102012.63
2018-10-05T01:47:47.033Z,102010.20
2018-10-05T01:51:11.473Z,102004.17
2018-10-05T01:54:35.906Z,101998.66
2018-10-05T01:58:00.344Z,101998.39
2018-10-05T02:01:24.841Z,101988.03
2018-10-05T02:04:49.284Z,101981.02
2018-10-05T02:08:13.689Z,101982.84
2018-10-05T02:11:38.145Z,101974.34
2018-10-05T02:15:02.573Z,101971.34
2018-10-05T02:18:27.025Z,101976.91
2018-10-05T02:21:51.570Z,101969.72
2018-10-05T02:25:16.036Z,101962.66
2018-10-05T02:28:40.409Z,101960.95
2018-10-05T02:32:04.814Z,101964.22
2018-10-05T02:35:29.211Z,101956.34
2018-10-05T02:38:53.669Z,101956.42
2018-10-05T02:42:18.078Z,101953.62
2018-10-05T02:45:42.517Z,101951.26
2018-10-05T02:49:07.153Z,101951.98
2018-10-05T02:52:31.567Z,101956.77
2018-10-05T02:55:56.004Z,101944.92
2018-10-05T02:59:20.398Z,101944.92
2018-10-05T03:02:44.888Z,101946.27
2018-10-05T03:06:09.290Z,101947.16
2018-10-05T03:09:33.723Z,101937.05
2018-10-05T03:12:58.188Z,101934.73
2018-10-05T03:16:22.610Z,101927.47
2018-10-05T03:19:47.120Z,101936.14
2018-10-05T03:23:11.483Z,101929.38
2018-10-05T03:26:35.905Z,101922.94
2018-10-05T03:30:00.347Z,101927.39
2018-10-05T03:33:24.768Z,101919.31
2018-10-05T03:36:49.174Z,101917.96
2018-10-05T03:40:13.617Z,101909.31
2018-10-05T03:43:38.031Z,101909.27
2018-10-05T03:47:02.498Z,101907.91
2018-10-05T03:50:27.037Z,101910.38
2018-10-05T03:53:51.461Z,101906.99
2018-10-05T03:57:15.901Z,101911.20
2018-10-05T04:00:40.364Z,101910.95
2018-10-05T04:04:04.785Z,101904.00
2018-10-05T04:07:29.219Z,101907.77
2018-10-05T04:10:53.622Z,101896.56
2018-10-05T04:14:18.223Z,101899.22
2018-10-05T04:17:42.702Z,101892.70
2018-10-05T04:21:07.128Z,101886.70
2018-10-05T04:24:31.542Z,101883.52
2018-10-05T04:27:56.011Z,101880.13
2018-10-05T04:31:20.447Z,101880.17
2018-10-05T04:34:45.025Z,101871.92
2018-10-05T04:38:09.444Z,101865.50
2018-10-05T04:41:33.871Z,101862.59
2018-10-05T04:44:58.346Z,101850.65
2018-10-05T04:48:22.740Z,101844.53
2018-10-05T04:51:47.178Z,101847.22
2018-10-05T04:55:11.654Z,101839.66
2018-10-05T04:58:36.101Z,101843.27
2018-10-05T05:02:00.718Z,101846.92
2018-10-05T05:05:25.153Z,101851.06
2018-10-05T05:08:49.576Z,101848.51
2018-10-05T05:12:14.038Z,101847.31
2018-10-05T05:15:38.422Z,101849.20
2018-10-05T05:19:02.886Z,101844.22
2018-10-05T05:22:27.400Z,101843.53
2018-10-05T05:25:51.824Z,101843.14
2018-10-05T05:29:16.304Z,101844.77
2018-10-05T05:32:40.742Z,101839.45
2018-10-05T05:36:05.236Z,101841.80
2018-10-05T05:39:29.625Z,101838.09
2018-10-05T05:42:53.989Z,101839.52
2018-10-05T05:46:18.762Z,101834.11
2018-10-05T05:49:43.195Z,101837.30
2018-10-05T05:53:07.650Z,101831.98
2018-10-05T05:56:32.082Z,101830.01
2018-10-05T05:59:56.473Z,101835.64
2018-10-05T06:03:20.890Z,101830.68
2018-10-05T06:06:45.295Z,101832.91
2018-10-05T06:10:09.744Z,101833.63
2018-10-05T06:13:34.182Z,101831.84
2018-10-05T06:16:58.829Z,101831.45
2018-10-05T06:20:23.256Z,101831.55
2018-10-05T06:23:47.667Z,101832.50
2018-10-05T06:27:12.086Z,101835.20
2018-10-05T06:30:36.531Z,101834.69
2018-10-05T06:34:00.961Z,101831.83
2018-10-05T06:37:28.383Z,101842.70
2018-10-05T06:40:52.900Z,101834.34
2018-10-05T06:44:17.279Z,101829.39
2018-10-05T06:47:41.684Z,101829.23
2018-10-05T06:51:06.181Z,101830.52
2018-10-05T06:54:30.604Z,101831.30
2018-10-05T06:57:55.006Z,101832.59
2018-10-05T07:01:19.581Z,101832.98
2018-10-05T07:04:44.003Z,101839.97
2018-10-05T07:08:08.456Z,101840.64
2018-10-05T07:11:32.886Z,101834.47
2018-10-05T07:14:57.262Z,101839.22
2018-10-05T07:18:21.696Z,101839.70
2018-10-05T07:21:46.174Z,101836.06
2018-10-05T07:25:10.610Z,101837.16
2018-10-05T07:28:35.126Z,101841.02
2018-10-05T07:31:59.417Z,101840.98
2018-10-05T07:35:23.847Z,101841.37
2018-10-05T07:38:48.274Z,101842.12
2018-10-05T07:42:12.729Z,101838.43
2018-10-05T07:45:37.143Z,101832.02
2018-10-05T07:49:01.574Z,101827.66
2018-10-05T07:52:26.030Z,101833.65
2018-10-05T07:55:50.430Z,101830.61
2018-10-05T07:59:14.878Z,101833.68
2018-10-05T08:02:39.383Z,101830.50
2018-10-05T08:06:03.884Z,101829.73
2018-10-05T08:09:28.346Z,101827.44
2018-10-05T08:12:52.751Z,101832.05
2018-10-05T08:16:17.170Z,101837.94
2018-10-05T08:19:41.631Z,101832.38
2018-10-05T08:23:06.043Z,101834.23
2018-10-05T08:26:30.508Z,101827.02
2018-10-05T08:29:54.932Z,101825.02
2018-10-05T08:33:19.341Z,101823.64
2018-10-05T08:36:43.756Z,101823.87
2018-10-05T08:40:09.256Z,101815.56
2018-10-05T08:43:33.634Z,101812.27
2018-10-05T08:46:58.107Z,101807.63
2018-10-05T08:50:22.527Z,101803.48
2018-10-05T08:53:46.919Z,101803.78
2018-10-05T08:57:11.304Z,101798.35
2018-10-05T09:00:35.850Z,101799.39
2018-10-05T09:04:00.152Z,101796.98
2018-10-05T09:07:24.833Z,101793.08
2018-10-05T09:10:50.125Z,101786.75
2018-10-05T09:14:14.527Z,101785.05
2018-10-05T09:17:39.021Z,101778.42
2018-10-05T09:21:03.432Z,101780.62
2018-10-05T09:24:27.903Z,101775.17
2018-10-05T09:27:52.311Z,101767.17
2018-10-05T09:31:16.738Z,101764.02
2018-10-05T09:34:41.169Z,101767.72
2018-10-05T09:38:05.615Z,101761.57
2018-10-05T09:41:30.028Z,101746.02
2018-10-05T09:44:54.428Z,101744.09
2018-10-05T09:48:18.880Z,101732.34
2018-10-05T09:51:43.350Z,101728.33
2018-10-05T09:55:07.733Z,101728.97
2018-10-05T09:58:32.203Z,101716.70
2018-10-05T10:02:01.958Z,101708.02
2018-10-05T10:05:26.388Z,101700.83
2018-10-05T10:08:50.792Z,101700.68
2018-10-05T10:12:15.226Z,101700.53
2018-10-05T10:15:39.638Z,101694.58
2018-10-05T10:19:04.063Z,101690.35
2018-10-05T10:22:28.504Z,101687.27
2018-10-05T10:25:52.895Z,101683.33
2018-10-05T10:29:17.445Z,101681.31
2018-10-05T10:32:41.768Z,101667.93
2018-10-05T10:36:06.388Z,101667.77
2018-10-05T10:39:30.798Z,101659.47
2018-10-05T10:42:55.223Z,101654.72
2018-10-05T10:46:19.630Z,101654.30
2018-10-05T10:49:44.021Z,101646.45
2018-10-05T10:53:08.525Z,101644.00
2018-10-05T10:56:32.965Z,101644.98
2018-10-05T10:59:57.380Z,101630.87
2018-10-05T11:03:21.789Z,101618.08
2018-10-05T11:06:46.313Z,101617.65
2018-10-05T11:10:10.698Z,101613.50
2018-10-05T11:13:35.164Z,101595.87
2018-10-05T11:16:59.729Z,101592.98
2018-10-05T11:20:24.129Z,101589.81
2018-10-05T11:23:48.611Z,101578.19
2018-10-05T11:27:13.059Z,101574.95
2018-10-05T11:30:37.684Z,101564.27
2018-10-05T11:34:02.105Z,101562.09
2018-10-05T11:37:26.517Z,101564.88
2018-10-05T11:40:51.060Z,101555.77
2018-10-05T11:44:15.426Z,101548.92
2018-10-05T11:47:39.792Z,101543.03
2018-10-05T11:51:04.248Z,101541.44
2018-10-05T11:54:28.699Z,101534.08
2018-10-05T11:57:53.151Z,101522.65
2018-10-05T12:01:17.631Z,101519.94
2018-10-05T12:04:42.054Z,101515.31
2018-10-05T12:08:06.498Z,101511.17
2018-10-05T12:11:30.946Z,101507.30
2018-10-05T12:14:55.381Z,101502.36
2018-10-05T12:18:19.894Z,101494.80
2018-10-05T12:21:44.320Z,101490.13
2018-10-05T12:25:08.833Z,101481.91
2018-10-05T12:28:33.218Z,101473.50
2018-10-05T12:31:57.787Z,101467.16
2018-10-05T12:35:22.231Z,101461.43
2018-10-05T12:38:46.673Z,101458.87
2018-10-05T12:42:11.302Z,101450.23
2018-10-05T12:45:35.716Z,101438.97
2018-10-05T12:49:00.137Z,101448.82
2018-10-05T12:52:24.736Z,101450.75
2018-10-05T12:55:49.495Z,101437.48
2018-10-05T12:59:13.890Z,101435.92
2018-10-05T13:02:38.265Z,101435.21
2018-10-05T13:06:02.701Z,101429.01
2018-10-05T13:09:27.121Z,101421.03
2018-10-05T13:12:51.622Z,101421.59
2018-10-05T13:16:15.963Z,101420.57
2018-10-05T13:19:40.398Z,101409.74
2018-10-05T13:23:04.771Z,101403.69
2018-10-05T13:26:29.191Z,101403.16
2018-10-05T13:29:53.643Z,101399.80
2018-10-05T13:33:18.089Z,101395.31
2018-10-05T13:36:42.524Z,101389.91
2018-10-05T13:40:06.980Z,101384.30
2018-10-05T13:43:31.495Z,101378.63
2018-10-05T13:46:55.941Z,101373.25
2018-10-05T13:50:20.336Z,101359.12
2018-10-05T13:53:44.744Z,101358.02
2018-10-05T13:57:09.145Z,101345.56
2018-10-05T14:00:33.559Z,101343.89
2018-10-05T14:03:57.953Z,101349.53
2018-10-05T14:07:22.345Z,101337.91
2018-10-05T14:10:46.728Z,101332.36
2018-10-05T14:14:11.097Z,101332.42
2018-10-05T14:17:35.543Z,101328.39
2018-10-05T14:21:00.023Z,101314.90
2018-10-05T14:24:24.459Z,101306.27
2018-10-05T14:27:48.956Z,101302.34
2018-10-05T14:31:13.376Z,101303.24
2018-10-05T14:34:37.798Z,101300.30
2018-10-05T14:38:02.261Z,101297.02
2018-10-05T14:41:26.639Z,101296.30
2018-10-05T14:44:51.060Z,101290.22
2018-10-05T14:48:15.455Z,101277.41
2018-10-05T14:51:39.849Z,101281.95
2018-10-05T14:55:04.325Z,101274.86
2018-10-05T14:58:28.761Z,101264.86
2018-10-05T15:01:53.165Z,101255.83
2018-10-05T15:05:17.586Z,101246.37
2018-10-05T15:08:42.016Z,101249.33
2018-10-05T15:12:06.459Z,101244.25
2018-10-05T15:15:30.938Z,101238.85
2018-10-05T15:18:55.367Z,101231.14
2018-10-05T15:22:19.839Z,101232.83
2018-10-05T15:25:44.252Z,101231.92
2018-10-05T15:29:08.730Z,101226.65
2018-10-05T15:32:33.131Z,101213.20
2018-10-05T15:35:57.575Z,101218.75
2018-10-05T15:39:21.971Z,101213.50
2018-10-05T15:42:46.401Z,101207.38
2018-10-05T15:46:11.704Z,101202.27
2018-10-05T15:49:36.612Z,101211.30
2018-10-05T15:53:01.124Z,101206.63
2018-10-05T15:56:25.463Z,101202.88
2018-10-05T15:59:50.077Z,101199.50
2018-10-05T16:03:14.471Z,101199.76
2018-10-05T16:06:38.937Z,101205.80
2018-10-05T16:10:03.437Z,101202.83
2018-10-05T16:13:27.842Z,101207.70
2018-10-05T16:16:52.261Z,101203.13
2018-10-05T16:20:16.725Z,101198.67
2018-10-05T16:23:41.891Z,101203.84
2018-10-05T16:27:06.404Z,101217.17
2018-10-05T16:30:30.825Z,101213.41
2018-10-05T16:33:55.363Z,101210.33
2018-10-05T16:37:19.804Z,101218.69
2018-10-05T16:40:44.210Z,101217.44
2018-10-05T16:44:08.607Z,101213.96
2018-10-05T16:47:34.451Z,101217.38
2018-10-05T16:50:58.912Z,101218.95
2018-10-05T16:54:23.346Z,101209.38
2018-10-05T16:57:48.048Z,101212.00
2018-10-05T17:01:13.108Z,101202.86
2018-10-05T17:04:37.972Z,101202.30
2018-10-05T17:08:02.981Z,101209.44
2018-10-05T17:11:27.970Z,101209.56
2018-10-05T17:14:52.417Z,101205.16
2018-10-05T17:18:17.009Z,101214.64
2018-10-05T17:21:42.068Z,101202.80
2018-10-05T17:25:07.490Z,101191.09
2018-10-05T17:28:32.594Z,101198.28
2018-10-05T17:31:57.499Z,101187.75
2018-10-05T17:35:22.212Z,101185.98
2018-10-05T17:38:46.895Z,101195.53
2018-10-05T17:42:11.379Z,101197.82
2018-10-05T17:45:36.420Z,101195.11
2018-10-05T17:49:01.701Z,101191.02
2018-10-05T17:52:26.519Z,101187.59
2018-10-05T17:55:51.978Z,101197.05
2018-10-05T17:59:19.465Z,101189.17
2018-10-05T18:02:46.782Z,101184.56
2018-10-05T18:06:11.574Z,101183.91
2018-10-05T18:09:36.644Z,101179.86
2018-10-05T18:13:02.092Z,101173.72
2018-10-05T18:16:26.515Z,101174.77
2018-10-05T18:19:51.013Z,101175.72
2018-10-05T18:23:15.455Z,101170.55
2018-10-05T18:26:39.941Z,101166.43
2018-10-05T18:30:04.440Z,101169.39
2018-10-05T18:33:28.854Z,101165.92
2018-10-05T18:36:53.830Z,101162.14
2018-10-05T18:40:18.365Z,101165.36
2018-10-05T18:43:42.830Z,101163.16
2018-10-05T18:47:09.204Z,101156.56
2018-10-05T18:50:34.187Z,101157.38
2018-10-05T18:53:59.541Z,101155.11
2018-10-05T18:57:24.782Z,101153.30
2018-10-05T19:00:50.152Z,101145.98
2018-10-05T19:04:14.971Z,101143.92
2018-10-05T19:07:40.134Z,101145.55
2018-10-05T19:11:04.823Z,101140.29
2018-10-05T19:14:29.499Z,101138.49
2018-10-05T19:17:54.236Z,101144.78
2018-10-05T19:21:19.276Z,101136.56
2018-10-05T19:24:43.971Z,101133.30
2018-10-05T19:28:08.510Z,101135.59
2018-10-05T19:31:33.596Z,101138.49
2018-10-05T19:34:58.102Z,101132.95
2018-10-05T19:38:22.614Z,101128.69
2018-10-05T19:41:47.220Z,101120.55
2018-10-05T19:45:11.847Z,101115.92
2018-10-05T19:48:36.245Z,101120.98
2018-10-05T19:52:00.653Z,101121.39
2018-10-05T19:55:25.062Z,101118.66
2018-10-05T19:58:49.484Z,101117.42
2018-10-05T20:02:13.949Z,101120.32
2018-10-05T20:05:38.330Z,101108.70
2018-10-05T20:09:02.795Z,101123.09
2018-10-05T20:12:27.270Z,101117.14
2018-10-05T20:15:51.762Z,101117.94
2018-10-05T20:19:16.240Z,101119.81
2018-10-05T20:22:40.736Z,101117.84
2018-10-05T20:26:05.195Z,101115.00
2018-10-05T20:29:29.656Z,101121.96
2018-10-05T20:32:54.088Z,101107.99
2018-10-05T20:36:18.649Z,101110.18
2018-10-05T20:39:42.979Z,101111.98
2018-10-05T20:43:07.750Z,101111.75
2018-10-05T20:46:32.216Z,101111.25
2018-10-05T20:49:57.204Z,101116.71
2018-10-05T20:53:22.115Z,101117.84
2018-10-05T20:56:46.582Z,101110.66
2018-10-05T21:00:11.015Z,101120.02
2018-10-05T21:03:35.416Z,101117.77
2018-10-05T21:07:00.612Z,101121.19
2018-10-05T21:10:25.133Z,101123.97
2018-10-05T21:13:49.768Z,101119.89
2018-10-05T21:17:14.743Z,101116.75
2018-10-05T21:20:39.547Z,101112.77
2018-10-05T21:24:04.349Z,101117.27
2018-10-05T21:27:28.998Z,101121.80
2018-10-05T21:30:53.714Z,101117.48
2018-10-05T21:34:18.175Z,101108.44
2018-10-05T21:37:42.645Z,101109.05
2018-10-05T21:41:07.351Z,101111.23
2018-10-05T21:44:31.825Z,101115.98
2018-10-05T21:47:56.295Z,101115.13
2018-10-05T21:51:20.694Z,101117.41
2018-10-05T21:54:45.068Z,101115.89
2018-10-05T21:58:09.502Z,101118.06
2018-10-05T22:01:33.971Z,101117.48
2018-10-05T22:04:58.370Z,101123.22
2018-10-05T22:08:22.768Z,101122.09
2018-10-05T22:11:47.262Z,101120.02
2018-10-05T22:15:11.646Z,101114.04
2018-10-05T22:18:36.060Z,101115.06
2018-10-05T22:22:00.549Z,101106.23
2018-10-05T22:25:25.021Z,101106.20
2018-10-05T22:28:49.457Z,101108.42
2018-10-05T22:32:13.872Z,101105.93
2018-10-05T22:35:38.476Z,101103.11
2018-10-05T22:39:02.959Z,101102.95
2018-10-05T22:42:27.417Z,101098.16
2018-10-05T22:45:51.992Z,101100.84
2018-10-05T22:49:16.685Z,101102.53
2018-10-05T22:52:41.151Z,101104.39
2018-10-05T22:56:05.594Z,101100.98
2018-10-05T22:59:30.172Z,101101.99
2018-10-05T23:02:54.632Z,101096.52
2018-10-05T23:06:19.102Z,101089.16
2018-10-05T23:09:43.501Z,101100.14
2018-10-05T23:13:07.975Z,101087.20
2018-10-05T23:16:32.692Z,101092.06
2018-10-05T23:19:57.304Z,101083.65
2018-10-05T23:23:21.735Z,101089.34
2018-10-05T23:26:46.148Z,101081.81
2018-10-05T23:30:10.580Z,101076.88
2018-10-05T23:33:35.023Z,101070.95
2018-10-05T23:36:59.446Z,101074.34
2018-10-05T23:40:23.873Z,101072.80
2018-10-05T23:43:48.290Z,101067.31
2018-10-05T23:47:12.689Z,101062.95
2018-10-05T23:50:37.137Z,101077.58
2018-10-05T23:54:01.552Z,101071.22
2018-10-05T23:57:25.995Z,101064.48
